Time;durP1;ratioP1;P1;durP2;ratioP2;P2;SDS_P1;SDS_P2;PMS_P1;PMS_P2;Temp;Humidity;BMP_temperature;BMP_pressure;BME280_temperature;BME280_humidity;BME280_pressure;Samples;Min_cycle;Max_cycle;Signal;HPM_P1;HPM_P2
2022/04/11 00:00:03;;;;;;;4.90;4.50;;;;;;;;;;5057316;28;20524;-68
2022/04/11 00:02:29;;;;;;;8.63;6.13;;;;;;;;;;5056812;28;20454;-67
2022/04/11 00:04:55;;;;;;;6.13;4.90;;;;;;;;;;5056599;28;20857;-67
2022/04/11 00:07:21;;;;;;;6.23;5.60;;;;;;;;;;5037786;28;20906;-67
2022/04/11 00:09:48;;;;;;;6.60;5.90;;;;;;;;;;5055110;28;20448;-67
2022/04/11 00:12:14;;;;;;;6.57;5.60;;;;;;;;;;5055382;28;20412;-67
2022/04/11 00:14:40;;;;;;;6.80;6.27;;;;;;;;;;5054991;28;20429;-67
2022/04/11 00:17:06;;;;;;;7.40;6.50;;;;;;;;;;5054773;28;20491;-67
2022/04/11 00:19:32;;;;;;;7.40;5.83;;;;;;;;;;5054946;28;20409;-67
2022/04/11 00:21:58;;;;;;;7.47;6.70;;;;;;;;;;5055130;28;20467;-66
2022/04/11 00:24:24;;;;;;;7.63;6.80;;;;;;;;;;5054744;28;20471;-66
2022/04/11 00:26:50;;;;;;;7.43;6.63;;;;;;;;;;5054828;28;20409;-66
2022/04/11 00:29:16;;;;;;;7.00;6.30;;;;;;;;;;5054775;28;20449;-68
2022/04/11 00:31:42;;;;;;;7.07;6.37;;;;;;;;;;5054368;28;20397;-67
2022/04/11 00:34:08;;;;;;;7.13;6.50;;;;;;;;;;5036753;28;20439;-67
2022/04/11 00:36:34;;;;;;;6.53;5.90;;;;;;;;;;5054641;28;20405;-67
2022/04/11 00:39:00;;;;;;;6.80;6.20;;;;;;;;;;5054581;28;20402;-67
2022/04/11 00:41:26;;;;;;;8.53;7.23;;;;;;;;;;5054528;28;20401;-68
2022/04/11 00:43:52;;;;;;;7.20;6.50;;;;;;;;;;5056953;28;20417;-67
2022/04/11 00:46:18;;;;;;;6.57;5.83;;;;;;;;;;5054039;28;20770;-67
2022/04/11 00:48:44;;;;;;;10.83;7.17;;;;;;;;;;5054704;28;20409;-67
2022/04/11 00:51:30;;;;;;;7.60;6.90;;;;;;;;;;5054408;28;20476;-67
2022/04/11 00:53:58;;;;;;;9.43;6.40;;;;;;;;;;5073072;23;20470;-67
2022/04/11 00:56:25;;;;;;;9.10;7.40;;;;;;;;;;5032927;28;20395;-68
2022/04/11 00:58:51;;;;;;;7.97;7.13;;;;;;;;;;5032468;28;20905;-67
2022/04/11 01:01:17;;;;;;;8.60;7.60;;;;;;;;;;5032488;28;20452;-67
2022/04/11 01:03:43;;;;;;;7.30;6.60;;;;;;;;;;5033053;28;20766;-67
2022/04/11 01:06:09;;;;;;;7.73;6.83;;;;;;;;;;5033712;28;20398;-68
2022/04/11 01:08:36;;;;;;;6.90;6.20;;;;;;;;;;5033061;28;20394;-67
2022/04/11 01:11:03;;;;;;;9.07;7.73;;;;;;;;;;5032822;28;20402;-67
2022/04/11 01:13:30;;;;;;;7.73;6.70;;;;;;;;;;5033192;28;20862;-67
2022/04/11 01:16:00;;;;;;;8.77;7.37;;;;;;;;;;5032450;28;20459;-67
2022/04/11 01:18:27;;;;;;;7.83;7.20;;;;;;;;;;5033220;28;20394;-68
2022/04/11 01:20:53;;;;;;;11.20;8.90;;;;;;;;;;5015267;28;20472;-67
2022/04/11 01:23:19;;;;;;;7.43;6.73;;;;;;;;;;5033490;28;20402;-68
2022/04/11 01:25:52;;;;;;;8.77;8.07;;;4.80;99.90;;;;;;5033731;28;20422;-69
2022/04/11 01:28:21;;;;;;;8.73;7.70;;;4.80;99.90;;;;;;5033001;28;20475;-68
2022/04/11 01:30:50;;;;;;;8.93;8.13;;;4.80;99.90;;;;;;5032541;28;20456;-68
2022/04/11 01:33:22;;;;;;;8.77;7.77;;;4.80;99.90;;;;;;5033209;28;20410;-68
2022/04/11 01:35:47;;;;;;;9.70;8.30;;;4.80;99.90;;;;;;5032923;28;20792;-68
2022/04/11 01:38:13;;;;;;;8.93;8.03;;;4.70;99.90;;;;;;5033228;28;20421;-68
2022/04/11 01:40:53;;;;;;;8.03;7.27;;;4.60;99.90;;;;;;5033160;28;20168;-68
2022/04/11 01:43:20;;;;;;;8.83;7.93;;;4.60;99.90;;;;;;5032802;28;21006;-69
2022/04/11 01:45:45;;;;;;;12.00;8.53;;;4.50;99.90;;;;;;5032159;28;20864;-68
2022/04/11 01:48:11;;;;;;;8.03;7.23;;;4.40;99.90;;;;;;5033872;28;20500;-68
2022/04/11 01:50:37;;;;;;;10.80;8.73;;;4.30;99.90;;;;;;5033678;28;20202;-68
2022/04/11 01:53:11;;;;;;;8.97;8.07;;;4.40;99.90;;;;;;5033253;28;20463;-68
2022/04/11 01:55:37;;;;;;;7.90;7.13;;;4.40;99.90;;;;;;5032913;28;20445;-68
2022/04/11 01:58:04;;;;;;;8.10;7.40;;;4.40;99.90;;;;;;5032706;28;20416;-68
2022/04/11 02:00:30;;;;;;;10.00;9.10;;;4.50;99.90;;;;;;5032997;28;20406;-68
2022/04/11 02:02:57;;;;;;;9.07;6.97;;;4.50;99.90;;;;;;5032886;28;20425;-67
2022/04/11 02:05:22;;;;;;;11.90;7.57;;;4.60;99.90;;;;;;5032455;28;20969;-68
2022/04/11 02:07:48;;;;;;;9.50;8.60;;;4.50;99.90;;;;;;5032577;28;20411;-68
2022/04/11 02:10:14;;;;;;;9.33;8.20;;;4.50;99.90;;;;;;5033030;28;20199;-68
2022/04/11 02:12:40;;;;;;;9.70;8.70;;;4.50;99.90;;;;;;5033045;28;20194;-68
2022/04/11 02:15:06;;;;;;;10.97;9.00;;;4.60;99.90;;;;;;5031331;28;20199;-68
2022/04/11 02:17:32;;;;;;;8.37;7.60;;;4.50;99.90;;;;;;5032357;28;20175;-68
2022/04/11 02:19:58;;;;;;;9.53;8.53;;;4.50;99.90;;;;;;5032600;28;20410;-67
2022/04/11 02:22:23;;;;;;;9.87;8.60;;;4.50;99.90;;;;;;5014829;28;20543;-68
2022/04/11 02:24:50;;;;;;;8.93;8.03;;;4.60;99.90;;;;;;5032463;28;20224;-68
2022/04/11 02:27:16;;;;;;;8.77;7.97;;;4.60;99.90;;;;;;5032418;28;20175;-69
2022/04/11 02:29:41;;;;;;;7.97;7.20;;;4.70;99.90;;;;;;5032178;28;20453;-67
2022/04/11 02:32:07;;;;;;;8.80;7.07;;;4.80;99.90;;;;;;5032296;28;20174;-68
2022/04/11 02:34:33;;;;;;;7.87;7.17;;;4.80;99.90;;;;;;5014575;28;20187;-68
2022/04/11 02:36:58;;;;;;;8.33;7.53;;;4.90;99.90;;;;;;5032141;28;20818;-68
2022/04/11 02:39:24;;;;;;;10.20;8.73;;;5.00;99.90;;;;;;5032439;28;20171;-67
2022/04/11 02:41:50;;;;;;;8.87;7.97;;;5.10;99.90;;;;;;5031251;28;20558;-68
2022/04/11 02:44:16;;;;;;;8.20;7.50;;;5.20;99.90;;;;;;5030973;28;20195;-69
2022/04/11 02:46:42;;;;;;;8.03;7.23;;;5.20;99.90;;;;;;5031918;28;20207;-67
2022/04/11 02:49:08;;;;;;;9.23;8.33;;;5.20;99.90;;;;;;5031938;28;20448;-67
2022/04/11 02:51:34;;;;;;;9.30;8.40;;;5.20;99.90;;;;;;5032243;28;20460;-68
2022/04/11 02:54:02;;;;;;;7.73;7.13;;;5.30;99.90;;;;;;5032141;28;20442;-68
2022/04/11 02:56:28;;;;;;;9.27;8.37;;;5.30;99.90;;;;;;5032667;28;20496;-69
2022/04/11 02:58:53;;;;;;;8.97;8.17;;;5.30;99.90;;;;;;5032075;28;20485;-68
2022/04/11 03:01:19;;;;;;;9.30;8.40;;;5.20;99.90;;;;;;5031734;28;20176;-68
2022/04/11 03:03:45;;;;;;;8.57;7.00;;;5.30;99.90;;;;;;5014307;28;20612;-68
2022/04/11 03:06:10;;;;;;;8.80;8.10;;;5.30;99.90;;;;;;5032270;28;20198;-68
2022/04/11 03:08:36;;;;;;;8.07;7.43;;;5.40;99.90;;;;;;5031955;28;20406;-68
2022/04/11 03:11:02;;;;;;;7.73;6.93;;;5.40;99.90;;;;;;5032127;28;20229;-68
2022/04/11 03:13:27;;;;;;;8.03;7.33;;;5.40;99.90;;;;;;5032147;28;20808;-68
2022/04/11 03:15:53;;;;;;;8.40;7.47;;;5.40;99.90;;;;;;5013909;28;20566;-67
2022/04/11 03:18:19;;;;;;;9.67;8.10;;;5.40;99.90;;;;;;5034167;28;20164;-68
2022/04/11 03:20:47;;;;;;;9.30;8.30;;;5.40;99.90;;;;;;5035965;28;20168;-68
2022/04/11 03:23:15;;;;;;;7.73;6.93;;;5.30;99.90;;;;;;5018157;28;20189;-68
2022/04/11 03:25:40;;;;;;;9.30;7.97;;;5.40;99.90;;;;;;5035659;28;20902;-68
2022/04/11 03:28:07;;;;;;;8.90;8.00;;;5.30;99.90;;;;;;5035855;28;20559;-68
2022/04/11 03:30:32;;;;;;;8.70;7.80;;;5.20;99.90;;;;;;5036030;28;20267;-68
2022/04/11 03:32:58;;;;;;;8.23;6.77;;;5.30;99.90;;;;;;5035782;28;20856;-68
2022/04/11 03:35:24;;;;;;;9.53;8.10;;;5.30;99.90;;;;;;5035783;28;20212;-67
2022/04/11 03:37:49;;;;;;;10.20;7.87;;;5.30;99.90;;;;;;5035937;28;20184;-68
2022/04/11 03:40:15;;;;;;;8.30;7.60;;;5.20;99.90;;;;;;5035678;28;20609;-67
2022/04/11 03:42:41;;;;;;;8.63;7.83;;;5.20;99.90;;;;;;5036289;28;20192;-68
2022/04/11 03:45:10;;;;;;;9.77;8.77;;;5.30;99.90;;;;;;5035419;28;20199;-68
2022/04/11 03:47:36;;;;;;;7.40;6.63;;;5.20;99.90;;;;;;5036067;28;20180;-68
2022/04/11 03:50:02;;;;;;;8.57;7.77;;;5.00;99.90;;;;;;5036410;28;20553;-68
2022/04/11 03:52:27;;;;;;;8.23;7.30;;;5.10;99.90;;;;;;5018576;28;20171;-68
2022/04/11 03:54:53;;;;;;;8.40;7.60;;;5.10;99.90;;;;;;5041544;28;20977;-68
2022/04/11 03:57:19;;;;;;;7.83;7.17;;;5.10;99.90;;;;;;5045672;28;20190;-68
2022/04/11 03:59:44;;;;;;;9.27;8.47;;;5.10;99.90;;;;;;5044975;28;20175;-68
2022/04/11 04:02:10;;;;;;;8.57;7.77;;;5.00;99.90;;;;;;5026817;28;20175;-68
2022/04/11 04:04:35;;;;;;;8.47;7.63;;;5.00;99.90;;;;;;5043432;28;20199;-68
2022/04/11 04:07:02;;;;;;;7.20;6.50;;;5.10;99.90;;;;;;5045442;28;20175;-68
2022/04/11 04:09:27;;;;;;;8.93;7.67;;;5.10;99.90;;;;;;5026770;28;20211;-68
2022/04/11 04:11:53;;;;;;;12.40;8.30;;;5.10;99.90;;;;;;5046054;28;20596;-69
2022/04/11 04:14:19;;;;;;;8.30;7.50;;;5.10;99.90;;;;;;5045911;28;20188;-67
2022/04/11 04:16:44;;;;;;;8.43;7.60;;;5.00;99.90;;;;;;5043172;28;20167;-68
2022/04/11 04:19:10;;;;;;;8.20;7.53;;;4.90;99.90;;;;;;5034704;28;20171;-68
2022/04/11 04:21:36;;;;;;;9.17;8.27;;;4.80;99.90;;;;;;5034958;28;20241;-68
2022/04/11 04:24:02;;;;;;;8.53;7.73;;;4.80;99.90;;;;;;5034378;28;20430;-67
2022/04/11 04:26:27;;;;;;;8.33;7.33;;;4.80;99.90;;;;;;5027313;28;20175;-69
2022/04/11 04:28:53;;;;;;;8.97;8.17;;;4.70;99.90;;;;;;5027103;28;20195;-68
2022/04/11 04:31:18;;;;;;;11.40;8.97;;;4.80;99.90;;;;;;5029120;28;20263;-68
2022/04/11 04:33:44;;;;;;;10.20;7.90;;;4.80;99.90;;;;;;5035119;28;20163;-67
2022/04/11 04:36:09;;;;;;;8.10;7.40;;;4.70;99.90;;;;;;5034950;28;20223;-67
2022/04/11 04:38:35;;;;;;;7.67;6.87;;;4.70;99.90;;;;;;5034484;28;20636;-67
2022/04/11 04:41:00;;;;;;;8.53;7.63;;;4.80;99.90;;;;;;5034289;28;20160;-68
2022/04/11 04:43:26;;;;;;;8.43;7.63;;;4.70;99.90;;;;;;5033980;28;20172;-68
2022/04/11 04:45:52;;;;;;;8.37;7.47;;;4.80;99.90;;;;;;5033550;28;20217;-67
2022/04/11 04:48:17;;;;;;;9.23;8.30;;;4.80;99.90;;;;;;5029395;28;20185;-70
2022/04/11 04:50:43;;;;;;;7.97;7.17;;;4.80;99.90;;;;;;5007153;28;20207;-68
2022/04/11 04:53:09;;;;;;;10.57;8.70;;;4.80;99.90;;;;;;5026556;28;20176;-69
2022/04/11 04:55:35;;;;;;;9.03;8.03;;;4.90;99.90;;;;;;5033985;28;20230;-68
2022/04/11 04:58:01;;;;;;;8.40;7.60;;;4.80;99.90;;;;;;5033925;28;20425;-67
2022/04/11 05:00:26;;;;;;;10.43;8.67;;;4.80;99.90;;;;;;5032879;28;20176;-67
2022/04/11 05:02:52;;;;;;;10.33;9.33;;;4.80;99.90;;;;;;5032692;28;20167;-68
2022/04/11 05:05:17;;;;;;;9.10;8.33;;;4.70;99.90;;;;;;5032951;28;20257;-68
2022/04/11 05:07:43;;;;;;;9.10;8.20;;;4.60;99.90;;;;;;5033201;28;20171;-68
2022/04/11 05:10:09;;;;;;;10.60;8.83;;;4.60;99.90;;;;;;5033457;28;20600;-68
2022/04/11 05:12:42;;;;;;;8.40;7.67;;;4.50;99.90;;;;;;5033004;28;20164;-68
2022/04/11 05:15:08;;;;;;;7.63;6.93;;;4.40;99.90;;;;;;5032769;28;20236;-68
2022/04/11 05:17:34;;;;;;;12.90;9.03;;;4.50;99.90;;;;;;5032686;28;20398;-68
2022/04/11 05:20:00;;;;;;;9.00;8.20;;;4.30;99.90;;;;;;5032835;28;20410;-67
2022/04/11 05:22:26;;;;;;;8.70;7.73;;;4.30;99.90;;;;;;5033169;28;20640;-67
2022/04/11 05:24:51;;;;;;;10.17;8.00;;;4.40;99.90;;;;;;5033882;28;20475;-68
2022/04/11 05:27:17;;;;;;;8.63;7.80;;;4.40;99.90;;;;;;5033256;28;20668;-67
2022/04/11 05:29:42;;;;;;;9.53;8.07;;;4.50;99.90;;;;;;5014454;28;20640;-66
2022/04/11 05:32:08;;;;;;;11.07;9.40;;;4.50;99.90;;;;;;5031986;28;20509;-67
2022/04/11 05:34:34;;;;;;;9.90;8.37;;;4.50;99.90;;;;;;5031596;28;20191;-67
2022/04/11 05:36:59;;;;;;;8.47;7.57;;;4.60;99.90;;;;;;5032518;28;20178;-67
2022/04/11 05:39:25;;;;;;;8.90;8.10;;;4.60;99.90;;;;;;5032502;28;20163;-66
2022/04/11 05:41:51;;;;;;;7.83;7.03;;;4.70;99.90;;;;;;5032503;28;20576;-67
2022/04/11 05:44:16;;;;;;;8.67;7.90;;;4.80;99.90;;;;;;5032173;28;20544;-67
2022/04/11 05:46:42;;;;;;;14.73;7.93;;;4.80;99.90;;;;;;5031957;28;20732;-67
2022/04/11 05:49:07;;;;;;;11.00;9.37;;;4.80;99.90;;;;;;5032597;28;20195;-67
2022/04/11 05:51:34;;;;;;;9.57;8.43;;;4.90;99.90;;;;;;5032561;28;20728;-67
2022/04/11 05:54:00;;;;;;;9.60;8.23;;;4.80;99.90;;;;;;5031892;28;20536;-67
2022/04/11 05:56:25;;;;;;;10.40;7.87;;;4.90;99.90;;;;;;5032151;28;20245;-66
2022/04/11 05:58:51;;;;;;;10.27;9.27;;;4.90;99.90;;;;;;5033046;28;20287;-67
2022/04/11 06:01:16;;;;;;;9.50;8.60;;;5.00;99.90;;;;;;5031916;28;20523;-67
2022/04/11 06:03:42;;;;;;;11.40;10.20;;;5.10;99.90;;;;;;5031741;28;20258;-67
2022/04/11 06:06:07;;;;;;;9.83;8.83;;;5.10;99.90;;;;;;5032471;28;20175;-67
2022/04/11 06:08:33;;;;;;;14.60;11.20;;;5.20;99.90;;;;;;5032520;28;20608;-67
2022/04/11 06:10:59;;;;;;;9.93;8.90;;;5.30;99.90;;;;;;5032374;28;20206;-67
2022/04/11 06:13:24;;;;;;;9.30;8.50;;;5.30;99.90;;;;;;5014317;28;20607;-67
2022/04/11 06:15:50;;;;;;;10.80;9.50;;;5.50;99.90;;;;;;5031631;28;20683;-67
2022/04/11 06:18:15;;;;;;;10.27;9.27;;;5.60;99.90;;;;;;5031498;28;20270;-67
2022/04/11 06:20:43;;;;;;;9.87;8.83;;;5.70;99.90;;;;;;5031590;28;20167;-67
2022/04/11 06:23:09;;;;;;;11.70;10.60;;;5.80;99.90;;;;;;5031590;28;20637;-69
2022/04/11 06:25:34;;;;;;;10.17;9.30;;;5.90;99.90;;;;;;5030420;28;20446;-66
2022/04/11 06:28:00;;;;;;;13.27;10.90;;;6.00;99.90;;;;;;5031903;28;20514;-68
2022/04/11 06:30:25;;;;;;;13.23;11.80;;;6.10;99.90;;;;;;5031670;28;20203;-66
2022/04/11 06:32:51;;;;;;;16.57;12.37;;;6.20;99.90;;;;;;5031662;28;20637;-67
2022/04/11 06:35:17;;;;;;;22.20;11.50;;;6.30;99.90;;;;;;5031978;28;20201;-67
2022/04/11 06:37:42;;;;;;;14.90;12.30;;;6.40;99.90;;;;;;5031906;28;20182;-66
2022/04/11 06:40:09;;;;;;;14.47;10.80;;;6.40;99.90;;;;;;5013905;28;20174;-67
2022/04/11 06:42:34;;;;;;;13.27;11.70;;;6.60;99.90;;;;;;5011676;28;20173;-67
2022/04/11 06:45:00;;;;;;;12.27;10.97;;;6.60;99.90;;;;;;5012765;28;20773;-67
2022/04/11 06:47:25;;;;;;;12.33;11.13;;;6.60;99.90;;;;;;5032803;28;20175;-67
2022/04/11 06:49:51;;;;;;;9.73;8.83;;;6.70;99.90;;;;;;5032367;28;20694;-67
2022/04/11 06:52:16;;;;;;;8.43;7.50;;;6.90;99.90;;;;;;5032767;28;20619;-66
2022/04/11 06:54:42;;;;;;;9.30;7.87;;;6.90;99.90;;;;;;5067703;23;20214;-66
2022/04/11 06:57:08;;;;;;;11.87;7.73;;;7.10;99.90;;;;;;5076657;28;20166;-67
2022/04/11 06:59:34;;;;;;;7.80;7.00;;;7.30;99.90;;;;;;5076904;28;20402;-67
2022/04/11 07:02:00;;;;;;;7.00;6.30;;;7.40;99.90;;;;;;5076153;28;20220;-68
2022/04/11 07:04:26;;;;;;;7.57;6.90;;;7.40;99.90;;;;;;5079235;28;20232;-67
2022/04/11 07:06:51;;;;;;;13.57;10.47;;;7.60;99.90;;;;;;5096419;28;20755;-66
2022/04/11 07:09:17;;;;;;;10.90;8.73;;;7.70;99.90;;;;;;5096649;28;20198;-66
2022/04/11 07:11:42;;;;;;;10.97;8.47;;;7.90;99.90;;;;;;5096630;28;20172;-66
2022/04/11 07:14:08;;;;;;;9.93;8.60;;;7.80;99.90;;;;;;5096651;28;20638;-67
2022/04/11 07:16:34;;;;;;;9.50;8.30;;;7.80;99.90;;;;;;5077803;28;20251;-67
2022/04/11 07:18:59;;;;;;;7.30;6.57;;;7.90;99.90;;;;;;5075800;28;20163;-67
2022/04/11 07:21:25;;;;;;;6.53;6.03;;;7.90;99.90;;;;;;5076067;28;20174;-67
2022/04/11 07:23:50;;;;;;;5.90;5.30;;;8.10;99.90;;;;;;5076150;28;20167;-67
2022/04/11 07:26:16;;;;;;;8.13;5.80;;;8.30;99.90;;;;;;5075794;28;20194;-67
2022/04/11 07:28:42;;;;;;;8.50;7.10;;;8.50;99.90;;;;;;5076130;28;20673;-67
2022/04/11 07:31:07;;;;;;;6.83;6.23;;;8.70;99.90;;;;;;5075926;28;20171;-67
2022/04/11 07:33:33;;;;;;;8.07;5.83;;;8.70;99.90;;;;;;5075656;28;20679;-67
2022/04/11 07:35:59;;;;;;;6.80;6.20;;;8.90;99.90;;;;;;5075671;28;20270;-67
2022/04/11 07:38:24;;;;;;;6.10;5.60;;;9.00;99.90;;;;;;5075687;28;20446;-67
2022/04/11 07:40:50;;;;;;;6.37;5.47;;;9.10;99.90;;;;;;5075697;28;20163;-67
2022/04/11 07:43:16;;;;;;;6.57;5.97;;;9.10;99.90;;;;;;5075633;28;20175;-67
2022/04/11 07:45:43;;;;;;;6.30;5.00;;;9.10;99.90;;;;;;5074593;28;20194;-67
2022/04/11 07:48:08;;;;;;;7.53;5.73;;;9.20;99.90;;;;;;5075615;28;20642;-68
2022/04/11 07:50:34;;;;;;;6.50;5.83;;;9.20;99.90;;;;;;5075532;28;20461;-68
2022/04/11 07:53:00;;;;;;;6.47;5.50;;;9.20;99.90;;;;;;5075558;28;20642;-68
2022/04/11 07:55:25;;;;;;;6.10;5.40;;;9.10;99.90;;;;;;5075207;28;20234;-68
2022/04/11 07:57:51;;;;;;;6.33;5.73;;;9.10;99.90;;;;;;5075070;28;20172;-67
2022/04/11 08:00:17;;;;;;;8.50;6.30;;;9.20;99.90;;;;;;5075056;28;20201;-67
2022/04/11 08:02:43;;;;;;;6.17;5.53;;;9.40;99.90;;;;;;5075662;28;20411;-67
2022/04/11 08:05:08;;;;;;;6.77;6.17;;;9.50;99.90;;;;;;5060119;28;20746;-66
2022/04/11 08:07:34;;;;;;;6.40;5.80;;;9.60;99.90;;;;;;5092038;28;20187;-68
2022/04/11 08:10:01;;;;;;;5.27;4.77;;;9.70;99.90;;;;;;5095741;28;20290;-68
2022/04/11 08:12:27;;;;;;;5.50;4.87;;;9.90;99.90;;;;;;5094733;28;20171;-68
2022/04/11 08:14:52;;;;;;;5.43;4.67;;;10.10;99.90;;;;;;5094812;28;20419;-67
2022/04/11 08:17:18;;;;;;;5.43;4.80;;;10.20;99.90;;;;;;5077891;28;20626;-67
2022/04/11 08:19:44;;;;;;;7.23;5.63;;;10.00;99.90;;;;;;5095145;28;20241;-67
2022/04/11 08:22:09;;;;;;;5.60;5.10;;;9.90;99.90;;;;;;5095341;28;20240;-67
2022/04/11 08:24:35;;;;;;;5.20;4.80;;;9.90;99.90;;;;;;5095217;28;20195;-67
2022/04/11 08:27:00;;;;;;;5.63;5.03;;;10.10;99.90;;;;;;5095917;28;20195;-67
2022/04/11 08:29:26;;;;;;;5.87;5.37;;;10.10;99.90;;;;;;5095130;28;20246;-67
2022/04/11 08:31:52;;;;;;;8.50;5.20;;;10.20;99.90;;;;;;5095168;28;20159;-68
2022/04/11 08:34:18;;;;;;;5.90;5.00;;;10.30;99.80;;;;;;5086381;28;20170;-67
2022/04/11 08:36:44;;;;;;;5.20;4.80;;;10.40;99.90;;;;;;5074662;28;20404;-68
2022/04/11 08:39:10;;;;;;;8.43;4.90;;;10.40;99.90;;;;;;5074481;28;20193;-67
2022/04/11 08:41:37;;;;;;;7.87;4.83;;;10.40;99.40;;;;;;5074729;28;20971;-68
2022/04/11 08:44:05;;;;;;;5.60;4.87;;;10.60;99.40;;;;;;5074566;28;20519;-67
2022/04/11 08:46:34;;;;;;;6.10;5.47;;;10.80;99.50;;;;;;5073243;28;20418;-67
2022/04/11 08:49:02;;;;;;;8.10;5.70;;;10.70;98.10;;;;;;5074789;28;20900;-68
2022/04/11 08:51:31;;;;;;;4.90;4.50;;;10.60;98.30;;;;;;5074603;28;20400;-67
2022/04/11 08:53:57;;;;;;;7.43;4.77;;;10.70;98.80;;;;;;5074413;28;20432;-67
2022/04/11 08:56:23;;;;;;;5.70;5.10;;;10.70;98.30;;;;;;5086904;28;20864;-67
2022/04/11 08:58:48;;;;;;;5.13;4.60;;;10.90;98.30;;;;;;5094410;28;20496;-67
2022/04/11 09:01:14;;;;;;;4.93;4.53;;;10.90;98.60;;;;;;5094072;28;20219;-67
2022/04/11 09:03:42;;;;;;;7.03;4.20;;;11.20;98.10;;;;;;5094354;28;20168;-66
2022/04/11 09:06:09;;;;;;;4.90;4.50;;;11.50;97.90;;;;;;5094290;28;20188;-67
2022/04/11 09:08:39;;;;;;;5.27;4.77;;;11.60;96.90;;;;;;5094736;28;20405;-67
2022/04/11 09:11:04;;;;;;;6.53;4.17;;;11.70;96.70;;;;;;5094360;28;20451;-67
2022/04/11 09:13:55;;;;;;;5.13;4.10;;;11.80;97.50;;;;;;5094403;28;20799;-67
2022/04/11 09:16:20;;;;;;;6.97;4.80;;;11.80;97.50;;;;;;5078427;28;20274;-67
2022/04/11 09:18:52;;;;;;;5.37;3.83;;;12.00;97.30;;;;;;5073976;28;20428;-67
2022/04/11 09:21:23;;;;;;;3.57;3.27;;;12.00;96.60;;;;;;5074738;28;20253;-67
2022/04/11 09:23:49;;;;;;;6.07;4.43;;;12.00;96.00;;;;;;5074298;28;20460;-67
2022/04/11 09:26:23;;;;;;;4.37;3.50;;;12.10;95.90;;;;;;5073955;28;20829;-68
2022/04/11 09:29:04;;;;;;;3.87;3.57;;;12.10;94.80;;;;;;5074170;28;20472;-67
2022/04/11 09:31:33;;;;;;;6.90;3.67;;;12.20;95.90;;;;;;5073226;28;20410;-67
2022/04/11 09:34:12;;;;;;;4.13;3.73;;;12.30;95.00;;;;;;5073902;28;20399;-67
2022/04/11 09:36:45;;;;;;;12.33;3.67;;;12.50;94.60;;;;;;5073725;28;20395;-67
2022/04/11 09:39:11;;;;;;;4.00;2.90;;;12.70;94.90;;;;;;5073484;28;20400;-67
2022/04/11 09:41:42;;;;;;;3.73;3.37;;;12.60;93.00;;;;;;5073854;28;20409;-67
2022/04/11 09:44:31;;;;;;;3.80;3.00;;;12.70;92.80;;;;;;5074221;28;20185;-67
2022/04/11 09:47:02;;;;;;;5.47;3.20;;;13.00;92.60;;;;;;5073156;28;20384;-68
2022/04/11 09:49:28;;;;;;;3.43;3.10;;;13.10;92.80;;;;;;5073519;28;20836;-67
2022/04/11 09:52:07;;;;;;;3.83;3.10;;;13.20;90.80;;;;;;5073518;28;20410;-67
2022/04/11 09:54:33;;;;;;;4.57;4.17;;;13.10;90.80;;;;;;5073129;28;20436;-68
2022/04/11 09:57:00;;;;;;;2.93;2.63;;;13.00;90.10;;;;;;5073397;28;20412;-68
2022/04/11 09:59:26;;;;;;;3.47;3.17;;;12.90;90.20;;;;;;5073450;28;20406;-68
2022/04/11 10:01:54;;;;;;;3.73;2.80;;;12.90;89.00;;;;;;5072808;28;20459;-67
2022/04/11 10:04:20;;;;;;;5.00;2.73;;;13.00;88.90;;;;;;5073242;28;20493;-67
2022/04/11 10:06:46;;;;;;;3.40;3.10;;;13.20;90.90;;;;;;5073055;28;20408;-68
2022/04/11 10:09:13;;;;;;;3.43;2.90;;;13.50;91.20;;;;;;5073008;28;20942;-66
2022/04/11 10:11:43;;;;;;;3.87;2.70;;;13.60;88.80;;;;;;5055305;28;20417;-67
2022/04/11 10:14:23;;;;;;;2.83;2.63;;;13.60;87.20;;;;;;5073195;28;20380;-67
2022/04/11 10:17:00;;;;;;;3.57;3.27;;;13.50;86.20;;;;;;5072776;28;20409;-67
2022/04/11 10:19:29;;;;;;;2.90;2.43;;;13.50;86.50;;;;;;5073332;28;20872;-66
2022/04/11 10:22:04;;;;;;;4.00;2.67;;;13.80;85.80;;;;;;5073384;28;20413;-68
2022/04/11 10:24:33;;;;;;;4.00;3.20;;;14.00;85.80;;;;;;5073456;28;20418;-68
2022/04/11 10:27:25;;;;;;;4.07;2.80;;;14.10;84.30;;;;;;5072242;28;20404;-68
2022/04/11 10:29:52;;;;;;;2.57;2.30;;;14.40;87.30;;;;;;5063657;28;20467;-67
2022/04/11 10:32:23;;;;;;;2.63;2.43;;;14.40;81.30;;;;;;5072549;28;20400;-68
2022/04/11 10:35:00;;;;;;;5.00;2.50;;;14.40;81.00;;;;;;5054766;28;20506;-67
2022/04/11 10:37:48;;;;;;;3.33;2.77;;;14.60;81.10;;;;;;5073003;28;20392;-67
2022/04/11 10:40:16;;;;;;;3.80;2.70;;;14.70;83.50;;;;;;5058482;28;20416;-67
2022/04/11 10:43:08;;;;;;;3.10;2.80;;;14.80;79.90;;;;;;5072821;28;20400;-67
2022/04/11 10:46:04;;;;;;;3.07;2.53;;;14.80;78.20;;;;;;5071471;28;20429;-67
2022/04/11 10:48:54;;;;;;;3.37;2.70;;;14.90;78.60;;;;;;5072492;28;20447;-67
2022/04/11 10:51:20;;;;;;;3.00;2.47;;;15.10;79.70;;;;;;5072821;28;20428;-67
2022/04/11 10:54:14;;;;;;;3.53;3.23;;;15.80;80.10;;;;;;5072814;28;20921;-67
2022/04/11 10:56:53;;;;;;;4.10;2.30;;;17.00;76.30;;;;;;5073140;28;20622;-66
2022/04/11 10:59:27;;;;;;;4.03;2.60;;;18.60;69.60;;;;;;5081633;28;20420;-67
2022/04/11 11:02:01;;;;;;;2.73;2.50;;;17.90;66.80;;;;;;5088115;28;20935;-67
2022/04/11 11:04:30;;;;;;;2.63;2.43;;;18.50;64.80;;;;;;5092353;28;20415;-68
2022/04/11 11:07:27;;;;;;;2.37;2.17;;;19.20;64.70;;;;;;5092156;28;20938;-66
2022/04/11 11:09:57;;;;;;;3.83;2.53;;;20.00;59.40;;;;;;5092614;28;20450;-68
2022/04/11 11:12:24;;;;;;;2.30;1.97;;;20.30;58.20;;;;;;5092990;28;20761;-68
2022/04/11 11:14:50;;;;;;;3.23;2.90;;;20.40;57.10;;;;;;5091026;28;20426;-68
2022/04/11 11:17:15;;;;;;;2.30;2.00;;;20.30;57.80;;;;;;5071956;28;20400;-68
2022/04/11 11:20:22;;;;;;;3.60;2.73;;;21.50;57.50;;;;;;5072624;28;20170;-68
2022/04/11 11:23:12;;;;;;;4.43;2.77;;;22.00;56.00;;;;;;4990936;28;20168;-68
2022/04/11 11:25:38;;;;;;;3.40;3.00;;;20.90;53.90;;;;;;4991106;28;20926;-68
2022/04/11 11:28:05;;;;;;;3.87;3.23;;;22.10;53.90;;;;;;5043968;28;20427;-68
2022/04/11 11:30:32;;;;;;;5.03;2.80;;;22.40;51.50;;;;;;5071944;28;20182;-67
2022/04/11 11:33:00;;;;;;;3.10;2.60;;;21.90;50.30;;;;;;5072452;28;20407;-68
2022/04/11 11:35:29;;;;;;;3.83;2.37;;;21.20;52.50;;;;;;5072254;28;20455;-68
2022/04/11 11:38:05;;;;;;;2.87;2.30;;;22.60;50.70;;;;;;5072564;28;20401;-68
2022/04/11 11:40:30;;;;;;;3.90;2.67;;;22.70;50.10;;;;;;5057889;28;20488;-67
2022/04/11 11:42:56;;;;;;;3.80;2.60;;;23.00;48.10;;;;;;5075850;28;20916;-68
2022/04/11 11:45:28;;;;;;;3.20;2.60;;;24.40;48.70;;;;;;5074589;28;20185;-68
2022/04/11 11:47:54;;;;;;;3.63;2.57;;;24.40;45.80;;;;;;5075921;28;20928;-68
2022/04/11 11:50:20;;;;;;;3.00;2.43;;;23.40;45.70;;;;;;5075592;28;20471;-68
2022/04/11 11:52:58;;;;;;;3.27;2.43;;;23.90;45.80;;;;;;5075596;28;20180;-69
2022/04/11 11:55:24;;;;;;;3.40;2.83;;;24.40;45.80;;;;;;5075403;28;20201;-67
2022/04/11 11:58:03;;;;;;;4.83;2.50;;;24.30;45.50;;;;;;5075616;28;20450;-68
2022/04/11 12:00:34;;;;;;;5.10;2.47;;;24.00;43.50;;;;;;5074744;28;20408;-68
2022/04/11 12:05:44;;;;;;;4.47;2.90;;;23.30;43.60;;;;;;5075630;28;20839;-68
2022/04/11 12:08:13;;;;;;;5.23;2.53;;;24.00;45.40;;;;;;5075572;28;20416;-70
2022/04/11 12:10:43;;;;;;;2.57;2.37;;;24.10;42.90;;;;;;5075515;28;20270;-68
2022/04/11 12:13:09;;;;;;;3.33;2.50;;;24.30;43.80;;;;;;5075151;28;20396;-68
2022/04/11 12:15:35;;;;;;;3.37;2.30;;;24.80;42.80;;;;;;5074435;28;20485;-68
2022/04/11 12:18:06;;;;;;;3.70;2.50;;;24.70;42.10;;;;;;5075392;28;20582;-68
2022/04/11 12:20:33;;;;;;;2.20;2.00;;;25.70;41.80;;;;;;5075406;28;20392;-68
2022/04/11 12:23:12;;;;;;;4.00;2.30;;;25.60;42.20;;;;;;5075370;28;20412;-68
2022/04/11 12:25:42;;;;;;;2.40;2.17;;;25.20;40.00;;;;;;5074872;28;20435;-68
2022/04/11 12:28:20;;;;;;;3.53;2.30;;;25.00;41.80;;;;;;5074724;28;20404;-67
2022/04/11 12:30:49;;;;;;;3.70;3.10;;;25.30;42.40;;;;;;5056450;28;20808;-68
2022/04/11 12:33:35;;;;;;;2.90;2.27;;;25.60;40.80;;;;;;5074853;28;20761;-68
2022/04/11 12:36:12;;;;;;;3.33;2.90;;;25.30;40.00;;;;;;5075407;28;20467;-68
2022/04/11 12:38:41;;;;;;;4.23;2.93;;;24.90;39.90;;;;;;5074400;28;20408;-68
2022/04/11 12:41:09;;;;;;;2.40;2.20;;;24.40;41.10;;;;;;5074873;28;20408;-68
2022/04/11 12:43:54;;;;;;;2.60;2.33;;;23.60;43.00;;;;;;5074520;28;20450;-69
2022/04/11 12:46:24;;;;;;;3.47;2.50;;;24.50;40.80;;;;;;5073189;28;20485;-69
2022/04/11 12:48:59;;;;;;;2.97;2.67;;;25.90;40.90;;;;;;5074500;28;20773;-68
2022/04/11 12:51:27;;;;;;;4.07;2.70;;;24.50;41.10;;;;;;5073774;28;20912;-68
2022/04/11 12:54:01;;;;;;;2.97;2.60;;;24.10;41.80;;;;;;5074300;28;20399;-68
2022/04/11 12:56:37;;;;;;;2.93;2.63;;;24.70;43.10;;;;;;5042975;23;20526;-66
2022/04/11 12:59:02;;;;;;;3.20;2.90;;;26.10;40.00;;;;;;5011927;28;20857;-66
2022/04/11 13:01:48;;;;;;;4.17;3.40;;;24.80;39.60;;;;;;5013702;28;20498;-66
2022/04/11 13:04:16;;;;;;;6.20;3.43;;;24.80;41.40;;;;;;5015096;28;20733;-69
2022/04/11 13:06:42;;;;;;;3.30;3.07;;;23.60;42.90;;;;;;5032141;28;20771;-68
2022/04/11 13:09:07;;;;;;;2.93;2.67;;;23.40;44.90;;;;;;5033480;28;20524;-67